createdAt,value
2022-10-05T00:02:19.119Z,9.61
2022-10-05T00:04:47.132Z,9.57
2022-10-05T00:07:18.573Z,9.52
2022-10-05T00:09:48.224Z,9.44
2022-10-05T00:12:17.550Z,9.41
2022-10-05T00:14:45.946Z,9.39
2022-10-05T00:17:22.083Z,9.36
2022-10-05T00:19:52.283Z,9.31
2022-10-05T00:22:24.821Z,9.28
2022-10-05T00:24:56.486Z,9.20
2022-10-05T00:27:26.115Z,9.24
2022-10-05T00:29:58.770Z,9.24
2022-10-05T00:32:26.208Z,9.22
2022-10-05T00:34:54.602Z,9.21
2022-10-05T00:37:21.139Z,9.20
2022-10-05T00:39:49.463Z,9.19
2022-10-05T00:42:35.136Z,9.09
2022-10-05T00:45:12.817Z,9.23
2022-10-05T00:47:49.669Z,9.22
2022-10-05T00:50:17.896Z,9.21
2022-10-05T00:52:50.242Z,9.18
2022-10-05T00:55:37.886Z,9.14
2022-10-05T00:58:19.562Z,9.12
2022-10-05T01:00:52.292Z,9.16
2022-10-05T01:03:29.867Z,9.20
2022-10-05T01:06:12.711Z,9.21
2022-10-05T01:08:54.389Z,9.22
2022-10-05T01:11:30.613Z,9.22
2022-10-05T01:14:34.869Z,9.19
2022-10-05T01:17:09.635Z,9.18
2022-10-05T01:19:45.758Z,9.20
2022-10-05T01:22:41.889Z,9.16
2022-10-05T01:25:26.882Z,9.16
2022-10-05T01:27:57.637Z,9.16
2022-10-05T01:30:24.256Z,9.15
2022-10-05T01:33:05.151Z,9.16
2022-10-05T01:35:45.734Z,9.17
2022-10-05T01:38:35.930Z,9.12
2022-10-05T01:41:20.601Z,9.13
2022-10-05T01:43:52.139Z,9.13
2022-10-05T01:46:24.662Z,9.13
2022-10-05T01:49:13.010Z,9.09
2022-10-05T01:51:53.011Z,9.03
2022-10-05T01:54:40.401Z,9.03
2022-10-05T01:57:13.056Z,9.00
2022-10-05T02:00:11.918Z,8.99
2022-10-05T02:02:52.443Z,8.94
2022-10-05T02:05:26.275Z,8.91
2022-10-05T02:08:00.015Z,8.90
2022-10-05T02:10:37.186Z,8.86
2022-10-05T02:13:12.774Z,8.89
2022-10-05T02:15:52.870Z,8.90
2022-10-05T02:18:28.228Z,8.89
2022-10-05T02:20:56.696Z,8.78
2022-10-05T02:23:29.636Z,8.86
2022-10-05T02:25:56.571Z,8.85
2022-10-05T02:28:30.993Z,8.79
2022-10-05T02:31:06.910Z,8.84
2022-10-05T02:33:36.795Z,8.84
2022-10-05T02:36:29.357Z,8.83
2022-10-05T02:39:19.209Z,8.83
2022-10-05T02:42:00.328Z,8.83
2022-10-05T02:44:49.216Z,8.84
2022-10-05T02:47:24.633Z,8.84
2022-10-05T02:50:06.043Z,8.84
2022-10-05T02:53:11.409Z,8.82
2022-10-05T02:56:24.777Z,8.86
2022-10-05T02:59:02.237Z,8.86
2022-10-05T03:01:34.349Z,8.86
2022-10-05T03:04:18.185Z,8.86
2022-10-05T03:06:54.481Z,8.80
2022-10-05T03:09:24.545Z,8.78
2022-10-05T03:12:06.341Z,8.77
2022-10-05T03:14:57.425Z,8.71
2022-10-05T03:18:05.888Z,8.73
2022-10-05T03:20:36.379Z,8.71
2022-10-05T03:23:04.837Z,8.69
2022-10-05T03:25:43.633Z,8.67
2022-10-05T03:28:24.735Z,8.67
2022-10-05T03:31:05.143Z,8.67
2022-10-05T03:33:51.818Z,8.65
2022-10-05T03:36:32.099Z,8.63
2022-10-05T03:39:12.755Z,8.59
2022-10-05T03:41:39.375Z,8.63
2022-10-05T03:44:18.574Z,8.63
2022-10-05T03:46:58.163Z,8.60
2022-10-05T03:49:38.871Z,8.60
2022-10-05T03:52:12.579Z,8.58
2022-10-05T03:54:41.863Z,8.50
2022-10-05T03:57:16.847Z,8.48
2022-10-05T04:00:05.756Z,8.44
2022-10-05T04:03:00.762Z,8.43
2022-10-05T04:05:41.640Z,8.43
2022-10-05T04:08:34.295Z,8.40
2022-10-05T04:11:07.489Z,8.38
2022-10-05T04:13:46.651Z,8.37
2022-10-05T04:16:19.506Z,8.35
2022-10-05T04:19:24.526Z,8.33
2022-10-05T04:21:57.391Z,8.34
2022-10-05T04:24:37.700Z,8.24
2022-10-05T04:27:16.189Z,8.31
2022-10-05T04:30:01.676Z,8.29
2022-10-05T04:32:41.547Z,8.30
2022-10-05T04:35:52.106Z,8.28
2022-10-05T04:38:43.271Z,8.30
2022-10-05T04:41:19.451Z,8.29
2022-10-05T04:44:23.170Z,8.29
2022-10-05T04:47:35.390Z,8.28
2022-10-05T04:50:20.326Z,8.26
2022-10-05T04:53:20.416Z,8.23
2022-10-05T04:56:05.351Z,8.23
2022-10-05T04:58:53.946Z,8.21
2022-10-05T05:01:23.702Z,8.25
2022-10-05T05:04:12.257Z,8.23
2022-10-05T05:06:45.613Z,8.24
2022-10-05T05:09:31.502Z,8.25
2022-10-05T05:12:20.889Z,8.26
2022-10-05T05:15:12.267Z,8.23
2022-10-05T05:18:15.123Z,8.16
2022-10-05T05:21:08.071Z,8.09
2022-10-05T05:23:51.899Z,8.03
2022-10-05T05:26:35.582Z,7.98
2022-10-05T05:29:30.767Z,7.96
2022-10-05T05:32:15.621Z,7.98
2022-10-05T05:35:04.022Z,7.99
2022-10-05T05:37:33.292Z,8.02
2022-10-05T05:40:19.395Z,8.03
2022-10-05T05:42:56.049Z,8.06
2022-10-05T05:45:38.409Z,8.08
2022-10-05T05:48:16.210Z,8.09
2022-10-05T05:50:59.773Z,8.10
2022-10-05T05:53:30.158Z,8.08
2022-10-05T05:56:19.851Z,8.09
2022-10-05T05:58:53.365Z,8.13
2022-10-05T06:01:33.740Z,8.16
2022-10-05T06:04:26.815Z,8.17
2022-10-05T06:06:56.146Z,8.18
2022-10-05T06:09:33.160Z,8.24
2022-10-05T06:12:16.486Z,8.31
2022-10-05T06:15:00.566Z,8.25
2022-10-05T06:17:33.886Z,8.41
2022-10-05T06:20:05.740Z,8.47
2022-10-05T06:22:41.965Z,8.53
2022-10-05T06:25:12.054Z,8.60
2022-10-05T06:28:02.208Z,8.67
2022-10-05T06:31:00.724Z,8.63
2022-10-05T06:33:36.331Z,8.81
2022-10-05T06:36:24.890Z,8.96
2022-10-05T06:39:10.243Z,9.23
2022-10-05T06:41:50.919Z,9.50
2022-10-05T06:45:08.212Z,9.65
2022-10-05T06:48:11.635Z,9.78
2022-10-05T06:51:00.487Z,9.86
2022-10-05T06:53:35.399Z,9.96
2022-10-05T06:56:23.021Z,10.06
2022-10-05T06:59:18.403Z,10.36
2022-10-05T07:02:03.762Z,11.52
2022-10-05T07:04:41.768Z,12.60
2022-10-05T07:07:36.510Z,13.43
2022-10-05T07:10:08.982Z,13.70
2022-10-05T07:13:02.939Z,13.73
2022-10-05T07:15:40.890Z,14.26
2022-10-05T07:18:28.287Z,14.43
2022-10-05T07:21:11.342Z,14.53
2022-10-05T07:24:13.121Z,14.60
2022-10-05T07:26:50.681Z,14.61
2022-10-05T07:29:36.106Z,14.78
2022-10-05T07:32:14.411Z,14.98
2022-10-05T07:34:58.123Z,15.21
2022-10-05T07:37:50.633Z,15.51
2022-10-05T07:40:26.829Z,15.80
2022-10-05T07:43:24.284Z,16.00
2022-10-05T07:45:58.502Z,16.22
2022-10-05T07:48:56.161Z,16.38
2022-10-05T07:52:01.549Z,16.55
2022-10-05T07:54:53.077Z,16.68
2022-10-05T07:57:41.760Z,16.82
2022-10-05T08:00:20.701Z,16.97
2022-10-05T08:03:01.889Z,17.23
2022-10-05T08:05:31.473Z,17.53
2022-10-05T08:08:20.535Z,17.75
2022-10-05T08:11:55.211Z,17.97
2022-10-05T08:14:33.774Z,18.19
2022-10-05T08:17:15.053Z,18.40
2022-10-05T08:19:50.423Z,18.64
2022-10-05T08:22:30.792Z,18.85
2022-10-05T08:25:09.745Z,19.01
2022-10-05T08:27:48.132Z,19.13
2022-10-05T08:30:16.499Z,19.22
2022-10-05T08:32:47.954Z,19.31
2022-10-05T08:35:34.090Z,19.35
2022-10-05T08:38:11.671Z,19.40
2022-10-05T08:40:51.621Z,19.54
2022-10-05T08:43:48.817Z,19.63
2022-10-05T08:46:59.666Z,19.64
2022-10-05T08:50:01.865Z,19.83
2022-10-05T08:52:38.938Z,19.92
2022-10-05T08:55:17.575Z,19.81
2022-10-05T08:58:10.291Z,19.73
2022-10-05T09:00:48.972Z,19.88
2022-10-05T09:03:34.326Z,20.16
2022-10-05T09:06:19.189Z,20.27
2022-10-05T09:09:29.485Z,20.21
2022-10-05T09:12:38.491Z,20.41
2022-10-05T09:15:29.946Z,20.70
2022-10-05T09:18:32.297Z,20.79
2022-10-05T09:21:03.274Z,21.00
2022-10-05T09:23:47.375Z,21.08
2022-10-05T09:26:41.788Z,21.25
2022-10-05T09:29:25.092Z,21.42
2022-10-05T09:32:23.739Z,21.64
2022-10-05T09:34:59.088Z,21.64
2022-10-05T09:37:38.457Z,21.72
2022-10-05T09:40:29.146Z,21.89
2022-10-05T09:43:02.498Z,21.91
2022-10-05T09:45:45.343Z,21.65
2022-10-05T09:48:25.987Z,21.83
2022-10-05T09:51:11.341Z,22.04
2022-10-05T09:54:25.293Z,22.23
2022-10-05T09:57:11.928Z,22.37
2022-10-05T09:59:42.140Z,22.44
2022-10-05T10:02:24.505Z,22.59
2022-10-05T10:05:21.126Z,22.67
2022-10-05T10:08:04.620Z,22.85
2022-10-05T10:10:48.589Z,22.60
2022-10-05T10:13:25.246Z,22.75
2022-10-05T10:16:08.672Z,22.80
2022-10-05T10:18:38.062Z,22.87
2022-10-05T10:21:29.387Z,22.95
2022-10-05T10:24:29.778Z,23.23
2022-10-05T10:27:08.442Z,23.36
2022-10-05T10:29:43.287Z,23.51
2022-10-05T10:32:51.638Z,23.69
2022-10-05T10:35:39.801Z,23.85
2022-10-05T10:38:27.683Z,23.98
2022-10-05T10:41:03.344Z,24.07
2022-10-05T10:44:02.189Z,24.20
2022-10-05T10:46:44.738Z,24.41
2022-10-05T10:49:25.213Z,24.50
2022-10-05T10:52:16.852Z,24.52
2022-10-05T10:55:06.930Z,24.49
2022-10-05T10:58:15.750Z,24.70
2022-10-05T11:00:54.582Z,24.97
2022-10-05T11:03:51.369Z,25.06
2022-10-05T11:06:55.117Z,25.15
2022-10-05T11:09:40.985Z,25.18
2022-10-05T11:12:47.604Z,25.26
2022-10-05T11:15:50.835Z,25.36
2022-10-05T11:18:34.765Z,25.37
2022-10-05T11:21:20.477Z,25.37
2022-10-05T11:24:11.209Z,25.46
2022-10-05T11:26:44.634Z,25.55
2022-10-05T11:29:38.724Z,25.55
2022-10-05T11:32:17.482Z,25.54
2022-10-05T11:35:03.436Z,25.55
2022-10-05T11:37:48.616Z,25.54
2022-10-05T11:40:53.360Z,25.52
2022-10-05T11:43:28.980Z,25.63
2022-10-05T11:46:05.489Z,25.84
2022-10-05T11:48:35.090Z,26.00
2022-10-05T11:51:29.049Z,26.10
2022-10-05T11:54:20.755Z,26.04
2022-10-05T11:57:03.423Z,26.12
2022-10-05T11:59:51.427Z,26.12
2022-10-05T12:02:41.396Z,26.13
2022-10-05T12:05:32.445Z,26.09
2022-10-05T12:08:17.134Z,26.06
2022-10-05T12:11:05.443Z,26.05
2022-10-05T12:14:16.460Z,26.06
2022-10-05T12:17:05.637Z,26.21
2022-10-05T12:19:38.845Z,26.33
2022-10-05T12:22:17.809Z,26.21
2022-10-05T12:25:01.677Z,26.33
2022-10-05T12:27:37.327Z,26.40
2022-10-05T12:30:18.510Z,26.44
2022-10-05T12:33:03.380Z,26.43
2022-10-05T12:35:48.337Z,26.44
2022-10-05T12:38:36.890Z,26.48
2022-10-05T12:41:18.664Z,26.36
2022-10-05T12:44:03.121Z,26.23
2022-10-05T12:46:45.075Z,26.27
2022-10-05T12:49:18.397Z,26.28
2022-10-05T12:51:48.898Z,26.19
2022-10-05T12:54:48.722Z,25.98
2022-10-05T12:57:39.102Z,25.95
2022-10-05T13:00:24.269Z,25.82
2022-10-05T13:02:57.998Z,25.76
2022-10-05T13:05:34.004Z,25.59
2022-10-05T13:08:13.279Z,25.52
2022-10-05T13:10:48.253Z,25.34
2022-10-05T13:13:36.549Z,25.09
2022-10-05T13:16:17.931Z,24.90
2022-10-05T13:18:50.725Z,24.75
2022-10-05T13:21:24.752Z,24.58
2022-10-05T13:24:00.026Z,24.52
2022-10-05T13:26:36.402Z,24.44
2022-10-05T13:29:16.739Z,24.38
2022-10-05T13:31:50.734Z,24.42
2022-10-05T13:34:45.261Z,24.38
2022-10-05T13:37:20.007Z,24.37
2022-10-05T13:39:56.636Z,24.32
2022-10-05T13:42:50.081Z,24.24
2022-10-05T13:45:25.002Z,24.22
2022-10-05T13:48:22.294Z,24.18
2022-10-05T13:51:04.858Z,24.20
2022-10-05T13:53:37.562Z,24.17
2022-10-05T13:56:12.491Z,24.19
2022-10-05T13:58:48.386Z,24.20
2022-10-05T14:01:44.079Z,24.01
2022-10-05T14:04:24.611Z,24.26
2022-10-05T14:06:52.636Z,24.29
2022-10-05T14:09:25.474Z,24.30
2022-10-05T14:12:04.120Z,24.25
2022-10-05T14:14:41.052Z,24.31
2022-10-05T14:17:33.959Z,24.30
2022-10-05T14:20:15.732Z,24.30
2022-10-05T14:22:42.527Z,24.28
2022-10-05T14:25:09.196Z,24.25
2022-10-05T14:27:50.763Z,24.19
2022-10-05T14:30:23.776Z,24.11
2022-10-05T14:32:53.276Z,24.03
2022-10-05T14:35:22.212Z,23.95
2022-10-05T14:37:58.873Z,23.98
2022-10-05T14:40:38.180Z,23.94
2022-10-05T14:43:18.596Z,23.90
2022-10-05T14:46:24.986Z,23.84
2022-10-05T14:49:24.294Z,23.73
2022-10-05T14:51:52.031Z,23.63
2022-10-05T14:54:29.934Z,23.58
2022-10-05T14:57:00.141Z,23.60
2022-10-05T14:59:40.347Z,23.51
2022-10-05T15:02:52.430Z,23.48
2022-10-05T15:05:59.040Z,23.44
2022-10-05T15:08:52.374Z,23.40
2022-10-05T15:11:31.385Z,23.36
2022-10-05T15:13:58.640Z,23.32
2022-10-05T15:16:38.993Z,23.28
2022-10-05T15:19:31.471Z,23.23
2022-10-05T15:22:01.163Z,23.22
2022-10-05T15:24:38.908Z,23.15
2022-10-05T15:27:17.257Z,23.08
2022-10-05T15:29:59.917Z,23.04
2022-10-05T15:32:42.031Z,22.94
2022-10-05T15:35:40.477Z,22.83
2022-10-05T15:38:20.904Z,22.75
2022-10-05T15:41:11.527Z,22.64
2022-10-05T15:43:58.582Z,22.56
2022-10-05T15:46:39.912Z,22.43
2022-10-05T15:49:25.567Z,22.34
2022-10-05T15:52:14.170Z,22.24
2022-10-05T15:55:32.182Z,22.09
2022-10-05T15:58:10.899Z,21.98
2022-10-05T16:00:48.679Z,21.88
2022-10-05T16:03:49.793Z,21.77
2022-10-05T16:06:56.321Z,21.71
2022-10-05T16:09:41.107Z,21.60
2022-10-05T16:12:18.581Z,21.54
2022-10-05T16:15:03.586Z,21.44
2022-10-05T16:17:49.078Z,21.36
2022-10-05T16:20:41.049Z,21.24
2022-10-05T16:23:35.571Z,21.17
2022-10-05T16:26:23.956Z,21.07
2022-10-05T16:28:56.608Z,20.96
2022-10-05T16:31:39.326Z,20.87
2022-10-05T16:34:36.701Z,20.79
2022-10-05T16:37:35.404Z,20.65
2022-10-05T16:40:28.477Z,20.55
2022-10-05T16:43:04.411Z,20.41
2022-10-05T16:46:01.852Z,20.26
2022-10-05T16:48:38.341Z,20.18
2022-10-05T16:51:20.351Z,20.07
2022-10-05T16:53:55.981Z,19.93
2022-10-05T16:56:27.609Z,19.78
2022-10-05T16:59:25.831Z,19.64
2022-10-05T17:02:15.045Z,19.49
2022-10-05T17:05:03.462Z,19.36
2022-10-05T17:07:29.913Z,19.24
2022-10-05T17:10:05.810Z,19.09
2022-10-05T17:12:42.847Z,18.97
2022-10-05T17:15:31.553Z,18.80
2022-10-05T17:18:19.821Z,18.65
2022-10-05T17:21:00.866Z,18.55
2022-10-05T17:23:42.512Z,18.41
2022-10-05T17:26:55.172Z,18.29
2022-10-05T17:29:52.273Z,18.17
2022-10-05T17:32:18.891Z,18.07
2022-10-05T17:35:04.703Z,17.95
2022-10-05T17:37:35.670Z,17.86
2022-10-05T17:40:28.568Z,17.74
2022-10-05T17:43:25.359Z,17.63
2022-10-05T17:45:55.685Z,17.56
2022-10-05T17:49:03.814Z,17.47
2022-10-05T17:51:48.739Z,17.39
2022-10-05T17:54:48.133Z,16.98
2022-10-05T17:57:24.279Z,17.20
2022-10-05T17:59:53.802Z,17.13
2022-10-05T18:02:36.198Z,17.06
2022-10-05T18:05:12.123Z,16.98
2022-10-05T18:07:40.327Z,16.93
2022-10-05T18:10:09.918Z,16.85
2022-10-05T18:12:36.580Z,16.78
2022-10-05T18:15:23.126Z,16.71
2022-10-05T18:17:56.051Z,16.66
2022-10-05T18:20:26.459Z,16.58
2022-10-05T18:23:14.395Z,16.54
2022-10-05T18:26:01.355Z,16.52
2022-10-05T18:28:39.756Z,16.48
2022-10-05T18:31:23.478Z,16.38
2022-10-05T18:34:19.538Z,16.39
2022-10-05T18:37:36.328Z,16.38
2022-10-05T18:40:21.598Z,16.35
2022-10-05T18:43:01.972Z,16.34
2022-10-05T18:45:56.367Z,16.34
2022-10-05T18:48:40.744Z,16.33
2022-10-05T18:51:29.015Z,16.29
2022-10-05T18:54:31.784Z,16.27
2022-10-05T18:57:02.989Z,16.26
2022-10-05T18:59:42.368Z,16.26
2022-10-05T19:02:17.121Z,16.26
2022-10-05T19:05:04.833Z,16.22
2022-10-05T19:07:47.753Z,16.20
2022-10-05T19:10:19.950Z,16.17
2022-10-05T19:13:04.915Z,16.16
2022-10-05T19:16:06.871Z,16.11
2022-10-05T19:19:09.368Z,16.08
2022-10-05T19:21:48.418Z,16.07
2022-10-05T19:24:33.764Z,16.04
2022-10-05T19:27:12.150Z,15.99
2022-10-05T19:29:56.978Z,15.98
2022-10-05T19:32:57.365Z,15.92
2022-10-05T19:35:23.785Z,15.88
2022-10-05T19:38:20.864Z,15.81
2022-10-05T19:41:00.088Z,15.73
2022-10-05T19:43:41.567Z,15.65
2022-10-05T19:46:19.971Z,15.64
2022-10-05T19:48:54.384Z,15.56
2022-10-05T19:51:25.355Z,15.50
2022-10-05T19:53:55.924Z,15.44
2022-10-05T19:56:25.528Z,15.43
2022-10-05T19:59:00.307Z,15.41
2022-10-05T20:01:33.989Z,15.37
2022-10-05T20:04:01.124Z,15.35
2022-10-05T20:06:29.459Z,15.32
2022-10-05T20:09:04.469Z,15.15
2022-10-05T20:11:32.368Z,15.22
2022-10-05T20:14:01.578Z,15.16
2022-10-05T20:16:48.820Z,15.04
2022-10-05T20:19:54.566Z,15.04
2022-10-05T20:22:23.779Z,14.98
2022-10-05T20:24:52.429Z,14.96
2022-10-05T20:27:44.450Z,14.89
2022-10-05T20:30:19.705Z,14.88
2022-10-05T20:32:57.538Z,14.88
2022-10-05T20:35:27.684Z,14.88
2022-10-05T20:37:59.055Z,14.87
2022-10-05T20:40:27.518Z,14.84
2022-10-05T20:42:54.029Z,14.79
2022-10-05T20:45:20.911Z,14.76
2022-10-05T20:47:47.517Z,14.73
2022-10-05T20:50:14.919Z,14.74
2022-10-05T20:52:41.569Z,14.75
2022-10-05T20:55:10.767Z,14.73
2022-10-05T20:57:46.018Z,14.68
2022-10-05T21:00:13.265Z,14.63
2022-10-05T21:02:39.950Z,14.64
2022-10-05T21:05:07.683Z,14.57
2022-10-05T21:07:34.800Z,14.38
2022-10-05T21:10:03.280Z,14.42
2022-10-05T21:12:30.152Z,14.34
2022-10-05T21:14:56.642Z,14.30
2022-10-05T21:17:23.131Z,14.24
2022-10-05T21:19:50.214Z,14.19
2022-10-05T21:22:16.763Z,14.11
2022-10-05T21:24:43.241Z,14.06
2022-10-05T21:27:10.179Z,14.00
2022-10-05T21:29:37.131Z,13.95
2022-10-05T21:32:08.403Z,13.89
2022-10-05T21:34:35.135Z,13.85
2022-10-05T21:37:01.663Z,13.79
2022-10-05T21:39:28.155Z,13.74
2022-10-05T21:41:54.698Z,13.69
2022-10-05T21:44:21.211Z,13.65
2022-10-05T21:46:48.404Z,13.58
2022-10-05T21:49:19.539Z,13.59
2022-10-05T21:51:47.224Z,13.53
2022-10-05T21:54:16.778Z,13.49
2022-10-05T21:56:47.789Z,13.43
2022-10-05T21:59:18.765Z,13.23
2022-10-05T22:01:45.916Z,13.30
2022-10-05T22:04:12.448Z,13.22
2022-10-05T22:06:38.961Z,13.28
2022-10-05T22:09:05.446Z,13.23
2022-10-05T22:11:32.207Z,13.20
2022-10-05T22:14:02.617Z,13.16
2022-10-05T22:16:36.574Z,13.12
2022-10-05T22:19:05.409Z,13.09
2022-10-05T22:21:34.344Z,13.04
2022-10-05T22:24:02.371Z,12.97
2022-10-05T22:26:28.959Z,12.96
2022-10-05T22:28:56.772Z,12.94
2022-10-05T22:31:23.726Z,12.91
2022-10-05T22:33:50.354Z,12.95
2022-10-05T22:36:16.938Z,12.96
2022-10-05T22:38:44.768Z,12.99
2022-10-05T22:41:12.613Z,12.98
2022-10-05T22:43:39.326Z,12.95
2022-10-05T22:46:11.199Z,12.89
2022-10-05T22:48:38.504Z,12.86
2022-10-05T22:51:05.641Z,12.85
2022-10-05T22:53:32.447Z,12.82
2022-10-05T22:56:04.891Z,12.78
2022-10-05T22:58:31.561Z,12.77
2022-10-05T23:01:03.937Z,12.63
2022-10-05T23:03:31.916Z,12.82
2022-10-05T23:06:04.531Z,12.83
2022-10-05T23:08:33.062Z,12.85
2022-10-05T23:11:07.540Z,12.90
2022-10-05T23:13:34.259Z,12.85
2022-10-05T23:16:09.059Z,12.91
2022-10-05T23:18:35.981Z,12.86
2022-10-05T23:21:03.539Z,12.93
2022-10-05T23:23:30.043Z,12.95
2022-10-05T23:26:00.602Z,12.95
2022-10-05T23:28:28.560Z,12.98
2022-10-05T23:31:02.792Z,13.00
2022-10-05T23:33:29.624Z,13.03
2022-10-05T23:36:04.662Z,13.04
2022-10-05T23:38:31.492Z,13.07
2022-10-05T23:40:59.748Z,13.09
2022-10-05T23:43:27.049Z,13.08
2022-10-05T23:45:53.626Z,13.04
2022-10-05T23:48:20.141Z,13.05
2022-10-05T23:50:47.479Z,13.03
2022-10-05T23:53:14.794Z,12.96
2022-10-05T23:55:41.599Z,13.03
2022-10-05T23:58:08.722Z,13.02
